sensor_id;sensor_type;location;lat;lon;timestamp;P1;P2;P0
76045;PMS7003;64741;41.730;44.788;2022-12-05T00:04:51;28.8;25;17.4
76045;PMS7003;64741;41.730;44.788;2022-12-05T00:09:51;31.8;27.4;19.6
76045;PMS7003;64741;41.730;44.788;2022-12-05T00:14:51;28.8;26.6;19
76045;PMS7003;64741;41.730;44.788;2022-12-05T00:19:55;27.6;25;17.8
76045;PMS7003;64741;41.730;44.788;2022-12-05T00:24:55;27.8;25.4;17.6
76045;PMS7003;64741;41.730;44.788;2022-12-05T00:29:53;26.4;23.8;17.4
76045;PMS7003;64741;41.730;44.788;2022-12-05T00:34:51;25.2;22.8;17.2
76045;PMS7003;64741;41.730;44.788;2022-12-05T00:39:41;22.8;21.6;16.4
76045;PMS7003;64741;41.730;44.788;2022-12-05T00:44:51;22.8;21;15.2
76045;PMS7003;64741;41.730;44.788;2022-12-05T00:49:55;22.6;19.8;14.8
76045;PMS7003;64741;41.730;44.788;2022-12-05T00:54:51;20.6;20;14.8
76045;PMS7003;64741;41.730;44.788;2022-12-05T00:59:51;21.6;19;14.2
76045;PMS7003;64741;41.730;44.788;2022-12-05T01:04:51;18.8;18.2;12.8
76045;PMS7003;64741;41.730;44.788;2022-12-05T01:09:39;22.4;19.4;14
76045;PMS7003;64741;41.730;44.788;2022-12-05T01:14:49;18.8;16.6;11.8
76045;PMS7003;64741;41.730;44.788;2022-12-05T01:19:51;17.6;16;11.8
76045;PMS7003;64741;41.730;44.788;2022-12-05T01:24:49;17.6;15.6;11.8
76045;PMS7003;64741;41.730;44.788;2022-12-05T01:29:57;16.4;14.8;10.6
76045;PMS7003;64741;41.730;44.788;2022-12-05T01:34:57;17;14.6;10.4
76045;PMS7003;64741;41.730;44.788;2022-12-05T01:39:57;16.8;14.4;10.8
76045;PMS7003;64741;41.730;44.788;2022-12-05T01:45:01;16;15;11
76045;PMS7003;64741;41.730;44.788;2022-12-05T01:49:57;14.6;13.6;10.2
76045;PMS7003;64741;41.730;44.788;2022-12-05T01:54:21;13.8;13.4;9.6
76045;PMS7003;64741;41.730;44.788;2022-12-05T01:59:51;13.8;11.4;8.2
76045;PMS7003;64741;41.730;44.788;2022-12-05T02:04:58;13.6;11;8.4
76045;PMS7003;64741;41.730;44.788;2022-12-05T02:09:11;12.6;12.2;9.4
76045;PMS7003;64741;41.730;44.788;2022-12-05T02:14:58;13.8;11.4;8.2
76045;PMS7003;64741;41.730;44.788;2022-12-05T02:19:46;12;11;7.8
76045;PMS7003;64741;41.730;44.788;2022-12-05T02:24:59;9.8;9.4;6.6
76045;PMS7003;64741;41.730;44.788;2022-12-05T02:30:00;11.6;10.4;7.8
76045;PMS7003;64741;41.730;44.788;2022-12-05T02:34:56;11.2;9.8;7.6
76045;PMS7003;64741;41.730;44.788;2022-12-05T02:39:55;10.5;9.3;7.3
76045;PMS7003;64741;41.730;44.788;2022-12-05T02:44:51;10.2;9.4;6.8
76045;PMS7003;64741;41.730;44.788;2022-12-05T02:49:55;9.8;8.8;6.8
76045;PMS7003;64741;41.730;44.788;2022-12-05T02:54:59;10;8.6;6.6
76045;PMS7003;64741;41.730;44.788;2022-12-05T02:59:55;9.2;7.8;5.8
76045;PMS7003;64741;41.730;44.788;2022-12-05T03:04:57;9;8.2;6.2
76045;PMS7003;64741;41.730;44.788;2022-12-05T03:09:55;8.6;7.8;5.4
76045;PMS7003;64741;41.730;44.788;2022-12-05T03:14:57;7.6;6.4;5
76045;PMS7003;64741;41.730;44.788;2022-12-05T03:20:02;7.6;7;5.2
76045;PMS7003;64741;41.730;44.788;2022-12-05T03:24:43;7.8;7;5
76045;PMS7003;64741;41.730;44.788;2022-12-05T03:30:01;7.8;7.4;5.2
76045;PMS7003;64741;41.730;44.788;2022-12-05T03:34:48;7.4;5.4;3.8
76045;PMS7003;64741;41.730;44.788;2022-12-05T03:40:00;6.6;6.4;5
76045;PMS7003;64741;41.730;44.788;2022-12-05T03:44:58;8;6.8;4.8
76045;PMS7003;64741;41.730;44.788;2022-12-05T03:49:58;5.4;5;3.6
76045;PMS7003;64741;41.730;44.788;2022-12-05T03:54:58;5.6;5.2;4
76045;PMS7003;64741;41.730;44.788;2022-12-05T03:59:58;6.8;6;4.6
76045;PMS7003;64741;41.730;44.788;2022-12-05T04:04:57;6.2;5.6;4
76045;PMS7003;64741;41.730;44.788;2022-12-05T04:09:48;7;6.2;4.6
76045;PMS7003;64741;41.730;44.788;2022-12-05T04:14:54;5.6;5;4
76045;PMS7003;64741;41.730;44.788;2022-12-05T04:19:55;6.8;6.4;4.8
76045;PMS7003;64741;41.730;44.788;2022-12-05T04:24:41;7.4;6.2;4.2
76045;PMS7003;64741;41.730;44.788;2022-12-05T04:29:42;6.2;4.8;3.6
76045;PMS7003;64741;41.730;44.788;2022-12-05T04:34:58;4.8;4.6;3.2
76045;PMS7003;64741;41.730;44.788;2022-12-05T04:39:53;5.4;4.4;3.6
76045;PMS7003;64741;41.730;44.788;2022-12-05T04:44:56;4.4;3.6;2.8
76045;PMS7003;64741;41.730;44.788;2022-12-05T04:49:53;4;4;2.6
76045;PMS7003;64741;41.730;44.788;2022-12-05T04:54:52;5.2;4.4;2.8
76045;PMS7003;64741;41.730;44.788;2022-12-05T04:59:55;4.4;4.2;3
76045;PMS7003;64741;41.730;44.788;2022-12-05T05:04:53;3.6;3.2;2.4
76045;PMS7003;64741;41.730;44.788;2022-12-05T05:09:54;4;4;3.2
76045;PMS7003;64741;41.730;44.788;2022-12-05T05:14:53;4.2;3.4;2
76045;PMS7003;64741;41.730;44.788;2022-12-05T05:19:53;3.8;3;2.4
76045;PMS7003;64741;41.730;44.788;2022-12-05T05:24:57;2;1.8;1
76045;PMS7003;64741;41.730;44.788;2022-12-05T05:29:53;3;2.8;2.2
76045;PMS7003;64741;41.730;44.788;2022-12-05T05:34:57;3.4;3;2.2
76045;PMS7003;64741;41.730;44.788;2022-12-05T05:39:55;4.2;3.6;2.4
76045;PMS7003;64741;41.730;44.788;2022-12-05T05:44:55;3;2.4;2
76045;PMS7003;64741;41.730;44.788;2022-12-05T05:49:57;3.4;2.6;1.8
76045;PMS7003;64741;41.730;44.788;2022-12-05T05:54:55;4.8;3.8;2.8
76045;PMS7003;64741;41.730;44.788;2022-12-05T05:59:59;4;3.2;2.6
76045;PMS7003;64741;41.730;44.788;2022-12-05T06:04:55;3.4;2.8;2
76045;PMS7003;64741;41.730;44.788;2022-12-05T06:09:55;3.6;3.2;1.8
76045;PMS7003;64741;41.730;44.788;2022-12-05T06:14:57;3.8;2.8;2
76045;PMS7003;64741;41.730;44.788;2022-12-05T06:19:55;2.8;2.4;1.6
76045;PMS7003;64741;41.730;44.788;2022-12-05T06:24:57;3;2;1.6
76045;PMS7003;64741;41.730;44.788;2022-12-05T06:29:53;2.6;2.6;2
76045;PMS7003;64741;41.730;44.788;2022-12-05T06:34:55;2.8;2;1.4
76045;PMS7003;64741;41.730;44.788;2022-12-05T06:39:59;1.6;1.4;0.4
76045;PMS7003;64741;41.730;44.788;2022-12-05T06:44:53;1.8;1.2;0.8
76045;PMS7003;64741;41.730;44.788;2022-12-05T06:49:57;1.6;1.4;1.2
76045;PMS7003;64741;41.730;44.788;2022-12-05T06:54:55;2.4;2;1.6
76045;PMS7003;64741;41.730;44.788;2022-12-05T06:59:55;1.8;1.2;0.8
76045;PMS7003;64741;41.730;44.788;2022-12-05T07:04:57;2.6;2;1
76045;PMS7003;64741;41.730;44.788;2022-12-05T07:09:53;3.2;2;0.6
76045;PMS7003;64741;41.730;44.788;2022-12-05T07:14:55;2;2;1.4
76045;PMS7003;64741;41.730;44.788;2022-12-05T07:19:55;3.4;2.6;2
76045;PMS7003;64741;41.730;44.788;2022-12-05T07:24:53;2.4;2;1.2
76045;PMS7003;64741;41.730;44.788;2022-12-05T07:29:45;3.6;2.8;1.8
76045;PMS7003;64741;41.730;44.788;2022-12-05T07:34:55;1.4;1.4;1
76045;PMS7003;64741;41.730;44.788;2022-12-05T07:39:53;2.6;2.4;1.2
76045;PMS7003;64741;41.730;44.788;2022-12-05T07:44:59;1.4;1.4;0.8
76045;PMS7003;64741;41.730;44.788;2022-12-05T07:49:53;1.3;1.3;0.8
76045;PMS7003;64741;41.730;44.788;2022-12-05T07:54:57;1.6;0.4;0.2
76045;PMS7003;64741;41.730;44.788;2022-12-05T07:59:53;4;3.4;2.4
76045;PMS7003;64741;41.730;44.788;2022-12-05T08:04:57;20.4;17;12.4
76045;PMS7003;64741;41.730;44.788;2022-12-05T08:09:55;63;49.4;33.6
76045;PMS7003;64741;41.730;44.788;2022-12-05T08:14:53;64.8;51;35
76045;PMS7003;64741;41.730;44.788;2022-12-05T08:19:55;55.2;43.8;30.4
76045;PMS7003;64741;41.730;44.788;2022-12-05T08:24:53;46.8;38.2;26.6
76045;PMS7003;64741;41.730;44.788;2022-12-05T08:29:55;44.6;36.6;25.2
76045;PMS7003;64741;41.730;44.788;2022-12-05T08:34:57;39.6;32.4;22.6
76045;PMS7003;64741;41.730;44.788;2022-12-05T08:39:53;32.8;29.2;20.8
76045;PMS7003;64741;41.730;44.788;2022-12-05T08:44:31;32.6;29.4;20.6
76045;PMS7003;64741;41.730;44.788;2022-12-05T08:49:51;31.6;28.4;19.6
76045;PMS7003;64741;41.730;44.788;2022-12-05T08:54:55;27.8;25.2;19.2
76045;PMS7003;64741;41.730;44.788;2022-12-05T08:59:55;27.8;25.2;18.6
76045;PMS7003;64741;41.730;44.788;2022-12-05T09:04:53;27.6;24.6;17.6
76045;PMS7003;64741;41.730;44.788;2022-12-05T09:09:57;28;25;19
76045;PMS7003;64741;41.730;44.788;2022-12-05T13:49:56;28;25;19
76045;PMS7003;64741;41.730;44.788;2022-12-05T13:54:59;19.4;17.4;13.3
76045;PMS7003;64741;41.730;44.788;2022-12-05T14:00:02;15;12.8;10
76045;PMS7003;64741;41.730;44.788;2022-12-05T14:04:57;16.8;15.6;12.2
76045;PMS7003;64741;41.730;44.788;2022-12-05T14:09:57;16;15;12.4
76045;PMS7003;64741;41.730;44.788;2022-12-05T14:14:57;18.2;16;12
76045;PMS7003;64741;41.730;44.788;2022-12-05T14:19:59;24.4;20.2;15.6
76045;PMS7003;64741;41.730;44.788;2022-12-05T14:24:56;23.4;22;16.6
76045;PMS7003;64741;41.730;44.788;2022-12-05T14:29:58;22.8;20.6;16
76045;PMS7003;64741;41.730;44.788;2022-12-05T14:35:00;25;23.2;16.8
76045;PMS7003;64741;41.730;44.788;2022-12-05T14:39:57;26;23.4;17.4
76045;PMS7003;64741;41.730;44.788;2022-12-05T14:44:56;25.2;22.2;16.6
76045;PMS7003;64741;41.730;44.788;2022-12-05T14:50:20;27;23;17.4
76045;PMS7003;64741;41.730;44.788;2022-12-05T14:55:02;25.6;23;16.8
76045;PMS7003;64741;41.730;44.788;2022-12-05T14:59:58;26.8;23.2;17
76045;PMS7003;64741;41.730;44.788;2022-12-05T15:04:58;23.6;21.2;15.4
76045;PMS7003;64741;41.730;44.788;2022-12-05T15:09:56;24.2;21.4;15.6
76045;PMS7003;64741;41.730;44.788;2022-12-05T15:15:03;24.6;21.4;16.2
76045;PMS7003;64741;41.730;44.788;2022-12-05T15:19:44;22.8;20.4;14.8
76045;PMS7003;64741;41.730;44.788;2022-12-05T15:24:55;19;17.6;13.8
76045;PMS7003;64741;41.730;44.788;2022-12-05T15:29:55;19.6;17;12.4
76045;PMS7003;64741;41.730;44.788;2022-12-05T15:34:58;18.8;16.6;12.4
76045;PMS7003;64741;41.730;44.788;2022-12-05T15:39:55;20.2;16.6;12.4
76045;PMS7003;64741;41.730;44.788;2022-12-05T15:45:29;16.8;14.2;10.4
76045;PMS7003;64741;41.730;44.788;2022-12-05T15:49:57;13.4;12.2;9.6
76045;PMS7003;64741;41.730;44.788;2022-12-05T15:54:57;15.8;13.6;9.2
76045;PMS7003;64741;41.730;44.788;2022-12-05T15:59:59;12.8;10.8;8.2
76045;PMS7003;64741;41.730;44.788;2022-12-05T16:04:59;11.8;10.4;7.8
76045;PMS7003;64741;41.730;44.788;2022-12-05T16:09:57;12.6;11;8.4
76045;PMS7003;64741;41.730;44.788;2022-12-05T16:14:59;10.8;9.2;7
76045;PMS7003;64741;41.730;44.788;2022-12-05T16:20:08;11;9.8;7.2
76045;PMS7003;64741;41.730;44.788;2022-12-05T16:24:58;10.4;9.4;6.8
76045;PMS7003;64741;41.730;44.788;2022-12-05T16:30:27;10;9.2;6.6
76045;PMS7003;64741;41.730;44.788;2022-12-05T16:34:57;9.4;8.2;6.6
76045;PMS7003;64741;41.730;44.788;2022-12-05T16:39:59;9.4;8.2;6.6
76045;PMS7003;64741;41.730;44.788;2022-12-05T16:44:57;9;8.2;6.4
76045;PMS7003;64741;41.730;44.788;2022-12-05T16:49:53;9.4;8.6;6.8
76045;PMS7003;64741;41.730;44.788;2022-12-05T16:54:53;9.2;7.8;5.6
76045;PMS7003;64741;41.730;44.788;2022-12-05T16:59:55;8.8;7;5
76045;PMS7003;64741;41.730;44.788;2022-12-05T17:04:55;8.8;6.4;4.8
76045;PMS7003;64741;41.730;44.788;2022-12-05T17:09:59;6.8;6.8;5
76045;PMS7003;64741;41.730;44.788;2022-12-05T17:14:55;7.8;6;4.4
76045;PMS7003;64741;41.730;44.788;2022-12-05T17:19:57;7.8;6.8;5
76045;PMS7003;64741;41.730;44.788;2022-12-05T17:24:57;8.4;7.4;5.4
76045;PMS7003;64741;41.730;44.788;2022-12-05T17:29:59;8.2;6.8;5
76045;PMS7003;64741;41.730;44.788;2022-12-05T17:34:55;7.4;6.6;5.2
76045;PMS7003;64741;41.730;44.788;2022-12-05T17:39:53;8.2;6.6;5.4
76045;PMS7003;64741;41.730;44.788;2022-12-05T17:44:55;7.2;6.2;4.8
76045;PMS7003;64741;41.730;44.788;2022-12-05T17:49:57;8.2;6.6;4.6
76045;PMS7003;64741;41.730;44.788;2022-12-05T17:54:59;7.4;6.6;4.8
76045;PMS7003;64741;41.730;44.788;2022-12-05T17:59:59;7.4;5.8;4
76045;PMS7003;64741;41.730;44.788;2022-12-05T18:04:53;7.2;5.4;4
76045;PMS7003;64741;41.730;44.788;2022-12-05T18:09:55;6.6;6.2;4.4
76045;PMS7003;64741;41.730;44.788;2022-12-05T18:14:57;5.6;4.6;3.4
76045;PMS7003;64741;41.730;44.788;2022-12-05T18:19:55;4.8;4.4;3
76045;PMS7003;64741;41.730;44.788;2022-12-05T18:24:59;4.3;3.8;2.8
76045;PMS7003;64741;41.730;44.788;2022-12-05T18:29:55;5.4;4.8;3.4
76045;PMS7003;64741;41.730;44.788;2022-12-05T18:34:57;6.2;5.2;3.6
76045;PMS7003;64741;41.730;44.788;2022-12-05T18:39:57;6.6;5.6;4.2
76045;PMS7003;64741;41.730;44.788;2022-12-05T18:44:59;6.8;5;3.8
76045;PMS7003;64741;41.730;44.788;2022-12-05T18:49:55;5.4;5;3.6
76045;PMS7003;64741;41.730;44.788;2022-12-05T18:54:55;4.8;4.6;3.6
76045;PMS7003;64741;41.730;44.788;2022-12-05T18:59:55;5;3.6;2.6
76045;PMS7003;64741;41.730;44.788;2022-12-05T19:04:57;5;4.4;3.6
76045;PMS7003;64741;41.730;44.788;2022-12-05T19:09:59;5.6;4.8;3.6
76045;PMS7003;64741;41.730;44.788;2022-12-05T19:14:57;4.8;4.8;4
76045;PMS7003;64741;41.730;44.788;2022-12-05T19:19:55;4.4;3.8;2.6
76045;PMS7003;64741;41.730;44.788;2022-12-05T19:24:55;4.8;4;3.2
76045;PMS7003;64741;41.730;44.788;2022-12-05T19:29:57;5;3.6;2.6
76045;PMS7003;64741;41.730;44.788;2022-12-05T19:34:55;5.6;4.4;3.4
76045;PMS7003;64741;41.730;44.788;2022-12-05T19:39:59;4;4;3
76045;PMS7003;64741;41.730;44.788;2022-12-05T19:44:55;3.6;3.6;2.6
76045;PMS7003;64741;41.730;44.788;2022-12-05T19:49:55;5;4;2.6
76045;PMS7003;64741;41.730;44.788;2022-12-05T19:54:57;4.8;3.8;2.6
76045;PMS7003;64741;41.730;44.788;2022-12-05T19:59:59;5;3.8;2.8
76045;PMS7003;64741;41.730;44.788;2022-12-05T20:04:55;4.8;3.4;2.4
76045;PMS7003;64741;41.730;44.788;2022-12-05T20:09:55;4.4;4;3
76045;PMS7003;64741;41.730;44.788;2022-12-05T20:14:43;4.4;3.4;2.4
76045;PMS7003;64741;41.730;44.788;2022-12-05T20:19:43;3.4;3.2;2.2
76045;PMS7003;64741;41.730;44.788;2022-12-05T20:24:59;3.2;3;2.2
76045;PMS7003;64741;41.730;44.788;2022-12-05T20:29:59;4.2;3.8;2.6
76045;PMS7003;64741;41.730;44.788;2022-12-05T20:34:55;3.6;3.6;2.6
76045;PMS7003;64741;41.730;44.788;2022-12-05T20:39:55;3.4;2.8;2.2
76045;PMS7003;64741;41.730;44.788;2022-12-05T20:44:43;3.2;2.8;2.4
76045;PMS7003;64741;41.730;44.788;2022-12-05T20:49:55;4;3;2.2
76045;PMS7003;64741;41.730;44.788;2022-12-05T20:54:59;4;3.8;2.6
76045;PMS7003;64741;41.730;44.788;2022-12-05T20:59:53;3.6;2.6;2
76045;PMS7003;64741;41.730;44.788;2022-12-05T21:04:59;3.2;2.4;1.6
76045;PMS7003;64741;41.730;44.788;2022-12-05T21:09:57;2.8;2.2;2
76045;PMS7003;64741;41.730;44.788;2022-12-05T21:14:55;4;3.4;2.2
76045;PMS7003;64741;41.730;44.788;2022-12-05T21:19:53;2.8;2.2;1.6
76045;PMS7003;64741;41.730;44.788;2022-12-05T21:24:43;2.8;2.8;1.8
76045;PMS7003;64741;41.730;44.788;2022-12-05T21:29:43;3.4;2.8;1.4
76045;PMS7003;64741;41.730;44.788;2022-12-05T21:34:45;3;2.8;1.8
76045;PMS7003;64741;41.730;44.788;2022-12-05T21:39:57;4;3.4;2.2
76045;PMS7003;64741;41.730;44.788;2022-12-05T21:44:55;3;2.4;1.6
76045;PMS7003;64741;41.730;44.788;2022-12-05T21:49:53;4.4;2.6;1.6
76045;PMS7003;64741;41.730;44.788;2022-12-05T21:54:51;3.8;2.8;2
76045;PMS7003;64741;41.730;44.788;2022-12-05T21:59:53;3.4;3.4;2.2
76045;PMS7003;64741;41.730;44.788;2022-12-05T22:04:51;2.4;1.8;1.6
76045;PMS7003;64741;41.730;44.788;2022-12-05T22:09:53;3;2.4;1.6
76045;PMS7003;64741;41.730;44.788;2022-12-05T22:14:47;2.4;1.8;1
76045;PMS7003;64741;41.730;44.788;2022-12-05T22:19:55;2.2;1.6;1
76045;PMS7003;64741;41.730;44.788;2022-12-05T22:24:55;3.2;2.2;1.4
76045;PMS7003;64741;41.730;44.788;2022-12-05T22:29:53;2.6;2.6;1.6
76045;PMS7003;64741;41.730;44.788;2022-12-05T22:34:49;1.8;1.8;1.2
76045;PMS7003;64741;41.730;44.788;2022-12-05T22:39:51;2.4;2.2;1.4
76045;PMS7003;64741;41.730;44.788;2022-12-05T22:44:39;2.4;2.2;1.4
76045;PMS7003;64741;41.730;44.788;2022-12-05T22:49:51;3.4;2.6;1.8
76045;PMS7003;64741;41.730;44.788;2022-12-05T22:54:53;2;1.8;1.2
76045;PMS7003;64741;41.730;44.788;2022-12-05T22:59:55;3;2;1.8
76045;PMS7003;64741;41.730;44.788;2022-12-05T23:04:51;3;2.6;1.8
76045;PMS7003;64741;41.730;44.788;2022-12-05T23:09:49;3.2;2.6;1.8
76045;PMS7003;64741;41.730;44.788;2022-12-05T23:14:49;2;1.6;1.2
76045;PMS7003;64741;41.730;44.788;2022-12-05T23:19:51;3.2;2;1.4
76045;PMS7003;64741;41.730;44.788;2022-12-05T23:24:55;1.2;1.2;0.6
76045;PMS7003;64741;41.730;44.788;2022-12-05T23:29:51;2;1.2;0.6
76045;PMS7003;64741;41.730;44.788;2022-12-05T23:34:55;3;2.3;1.5
76045;PMS7003;64741;41.730;44.788;2022-12-05T23:39:53;2.8;2.6;1.8
76045;PMS7003;64741;41.730;44.788;2022-12-05T23:44:49;2.6;2.2;1.6
76045;PMS7003;64741;41.730;44.788;2022-12-05T23:49:51;2;1.8;1.2
76045;PMS7003;64741;41.730;44.788;2022-12-05T23:54:43;2.6;1.6;1
76045;PMS7003;64741;41.730;44.788;2022-12-05T23:59:51;2;1.6;0.4
